Time;durP1;ratioP1;P1;durP2;ratioP2;P2;SDS_P1;SDS_P2;PMS_P1;PMS_P2;Temp;Humidity;BMP_temperature;BMP_pressure;BME280_temperature;BME280_humidity;BME280_pressure;Samples;Min_cycle;Max_cycle;Signal;HPM_P1;HPM_P2
2021/12/18 00:00:32;;;;;;;4.10;3.17;;;19.30;66.60;;;;;;5112485;28;20487;-20
2021/12/18 00:02:58;;;;;;;3.43;3.07;;;19.20;66.80;;;;;;5111819;28;20264;-23
2021/12/18 00:05:23;;;;;;;3.53;3.00;;;19.20;67.00;;;;;;5111726;28;20229;-21
2021/12/18 00:07:49;;;;;;;3.57;3.27;;;19.20;67.10;;;;;;5094912;28;20292;-22
2021/12/18 00:10:15;;;;;;;3.67;3.00;;;19.20;67.30;;;;;;5094857;28;20299;-22
2021/12/18 00:12:47;;;;;;;4.20;3.23;;;19.20;67.60;;;;;;5113374;28;20241;-22
2021/12/18 00:15:13;;;;;;;5.03;3.40;;;19.10;67.70;;;;;;5113250;28;20221;-23
2021/12/18 00:17:39;;;;;;;4.63;3.13;;;19.10;67.80;;;;;;5115122;28;20186;-23
2021/12/18 00:20:05;;;;;;;3.60;3.20;;;19.10;68.10;;;;;;5097843;28;20323;-22
2021/12/18 00:22:31;;;;;;;3.47;2.80;;;19.00;68.30;;;;;;5098967;28;20325;-22
2021/12/18 00:24:57;;;;;;;3.93;3.20;;;19.00;68.60;;;;;;5115143;28;20512;-19
2021/12/18 00:27:22;;;;;;;3.30;2.93;;;19.00;68.60;;;;;;5098024;28;20201;-21
2021/12/18 00:29:48;;;;;;;4.60;3.40;;;19.00;68.80;;;;;;5115773;28;20296;-22
2021/12/18 00:32:14;;;;;;;4.97;3.00;;;19.00;69.10;;;;;;5098405;28;20267;-20
2021/12/18 00:34:39;;;;;;;3.80;3.30;;;18.90;69.20;;;;;;5116244;28;20224;-22
2021/12/18 00:37:06;;;;;;;3.67;3.10;;;18.90;69.40;;;;;;5116733;28;20194;-22
2021/12/18 00:39:33;;;;;;;3.23;2.93;;;18.90;69.50;;;;;;5115312;28;20214;-23
2021/12/18 00:42:07;;;;;;;3.53;3.00;;;18.90;69.60;;;;;;5116405;28;20204;-22
2021/12/18 00:44:33;;;;;;;3.37;3.07;;;18.80;69.80;;;;;;5114718;28;20613;-23
2021/12/18 00:46:59;;;;;;;3.50;3.10;;;18.80;69.80;;;;;;5114889;28;20204;-23
2021/12/18 00:49:24;;;;;;;3.60;3.03;;;18.80;70.10;;;;;;5116387;28;20194;-22
2021/12/18 00:51:50;;;;;;;2.80;2.60;;;18.80;70.20;;;;;;5098500;28;20194;-21
2021/12/18 00:54:16;;;;;;;3.87;3.10;;;18.80;70.40;;;;;;5097845;28;20198;-20
2021/12/18 00:56:42;;;;;;;3.20;2.90;;;18.80;70.60;;;;;;5114478;28;20198;-22
2021/12/18 00:59:08;;;;;;;4.33;3.10;;;18.70;70.80;;;;;;5115574;28;20205;-24
2021/12/18 01:01:33;;;;;;;3.07;2.70;;;18.70;71.00;;;;;;5096997;28;20204;-24
2021/12/18 01:03:59;;;;;;;2.87;2.63;;;18.70;71.10;;;;;;5115206;28;20648;-22
2021/12/18 01:06:26;;;;;;;3.07;2.70;;;18.70;71.10;;;;;;5115496;28;20198;-24
2021/12/18 01:08:56;;;;;;;3.13;2.77;;;18.70;71.30;;;;;;5097597;28;20195;-23
2021/12/18 01:11:33;;;;;;;2.90;2.60;;;18.60;71.40;;;;;;5098014;28;20198;-23
2021/12/18 01:16:55;;;;;;;3.57;3.10;;;18.60;71.70;;;;;;5115996;28;20196;-21
2021/12/18 01:24:49;;;;;;;3.50;2.80;;;18.60;72.20;;;;;;5115061;28;20212;-21
2021/12/18 01:27:16;;;;;;;2.80;2.50;;;18.50;72.20;;;;;;5097466;28;20483;-20
2021/12/18 01:29:41;;;;;;;3.23;2.63;;;18.50;72.20;;;;;;5096659;28;20202;-21
2021/12/18 01:32:09;;;;;;;3.30;3.00;;;18.50;72.60;;;;;;5097413;28;20190;-25
2021/12/18 01:34:35;;;;;;;3.00;2.70;;;18.50;72.60;;;;;;5097953;28;20196;-24
2021/12/18 01:37:02;;;;;;;4.33;3.20;;;18.50;72.60;;;;;;5116462;28;20353;-20
2021/12/18 01:39:27;;;;;;;3.23;2.80;;;18.50;72.60;;;;;;5098020;28;20198;-24
2021/12/18 01:52:41;;;;;;;3.30;2.83;;;18.40;72.90;;;;;;5116054;28;20197;-21
2021/12/18 01:55:09;;;;;;;3.00;2.70;;;18.30;73.00;;;;;;5115380;28;20205;-23
2021/12/18 01:57:35;;;;;;;3.07;2.77;;;18.30;73.20;;;;;;5096933;28;20571;-23
2021/12/18 02:00:01;;;;;;;3.80;3.00;;;18.40;73.20;;;;;;5114428;28;20192;-21
2021/12/18 02:02:27;;;;;;;3.90;2.67;;;18.30;73.20;;;;;;5114857;28;20193;-24
2021/12/18 02:04:53;;;;;;;3.50;2.80;;;18.30;73.30;;;;;;5115095;28;20200;-22
2021/12/18 02:07:18;;;;;;;3.03;2.60;;;18.30;73.40;;;;;;5096982;28;20202;-22
2021/12/18 02:10:07;;;;;;;3.07;2.60;;;18.30;73.70;;;;;;5114747;28;20178;-23
2021/12/18 02:12:43;;;;;;;3.10;2.73;;;18.30;73.60;;;;;;5115658;28;20187;-23
2021/12/18 02:20:50;;;;;;;3.50;2.70;;;18.20;73.90;;;;;;5114258;28;20482;-23
2021/12/18 02:23:16;;;;;;;3.43;2.70;;;18.20;74.10;;;;;;5114057;28;20208;-22
2021/12/18 02:25:44;;;;;;;2.97;2.50;;;18.20;74.20;;;;;;5114298;28;20341;-21
2021/12/18 02:28:25;;;;;;;2.93;2.67;;;18.20;74.30;;;;;;5096804;28;20207;-22
2021/12/18 02:30:54;;;;;;;2.63;2.37;;;18.20;74.50;;;;;;5114599;28;20877;-24
2021/12/18 02:33:20;;;;;;;3.10;2.70;;;18.20;74.50;;;;;;5115079;28;20182;-21
2021/12/18 02:35:51;;;;;;;3.80;2.53;;;18.10;74.60;;;;;;5096870;28;20439;-23
2021/12/18 02:38:20;;;;;;;3.33;2.73;;;18.10;74.50;;;;;;5114919;28;20216;-21
2021/12/18 02:43:18;;;;;;;2.90;2.50;;;18.10;74.60;;;;;;5114097;28;20301;-20
2021/12/18 02:45:43;;;;;;;3.50;2.70;;;18.10;74.60;;;;;;5096494;28;20278;-22
2021/12/18 02:48:09;;;;;;;3.17;2.60;;;18.10;74.70;;;;;;5115023;28;20570;-21
2021/12/18 02:50:39;;;;;;;2.60;2.40;;;18.10;75.00;;;;;;5097254;28;20542;-21
2021/12/18 02:53:06;;;;;;;3.53;2.70;;;18.10;75.00;;;;;;5115383;28;20262;-24
2021/12/18 02:55:32;;;;;;;2.80;2.60;;;18.10;75.10;;;;;;5115886;28;20203;-21
2021/12/18 02:57:58;;;;;;;3.17;2.60;;;18.10;75.00;;;;;;5114132;28;20200;-23
2021/12/18 03:00:26;;;;;;;2.90;2.60;;;18.10;74.90;;;;;;5097015;28;20223;-21
2021/12/18 03:02:52;;;;;;;2.73;2.40;;;18.10;75.00;;;;;;5114060;28;20455;-21
2021/12/18 03:05:25;;;;;;;3.13;2.67;;;18.00;75.00;;;;;;5115064;28;20672;-22
2021/12/18 03:07:57;;;;;;;3.73;3.00;;;18.00;75.10;;;;;;5097510;28;20195;-21
2021/12/18 03:26:47;;;;;;;3.17;2.77;;;18.00;75.20;;;;;;5114514;28;20195;-22
2021/12/18 03:29:13;;;;;;;4.23;3.33;;;17.90;75.20;;;;;;5096545;28;20204;-21
2021/12/18 03:31:39;;;;;;;3.73;3.23;;;18.00;75.20;;;;;;5096677;28;20217;-21
2021/12/18 03:34:04;;;;;;;3.30;3.00;;;17.90;75.30;;;;;;5096366;28;20206;-22
2021/12/18 03:36:30;;;;;;;4.77;3.57;;;17.90;75.30;;;;;;5096418;28;20497;-22
2021/12/18 03:38:55;;;;;;;3.33;3.00;;;17.90;75.30;;;;;;5096170;28;20190;-22
2021/12/18 03:41:21;;;;;;;3.47;2.87;;;17.90;75.30;;;;;;5095859;28;20204;-20
2021/12/18 03:43:47;;;;;;;3.30;3.00;;;17.90;75.30;;;;;;5113781;28;20213;-21
2021/12/18 03:46:13;;;;;;;3.37;2.70;;;17.90;75.30;;;;;;5113966;28;20445;-21
2021/12/18 03:48:38;;;;;;;4.10;3.30;;;17.90;75.40;;;;;;5097094;28;20198;-22
2021/12/18 03:51:04;;;;;;;4.43;3.20;;;17.90;75.50;;;;;;5095823;28;20188;-23
2021/12/18 03:53:30;;;;;;;4.17;3.10;;;17.90;75.60;;;;;;5117995;28;20269;-22
2021/12/18 03:55:56;;;;;;;4.37;3.27;;;17.90;75.60;;;;;;5117330;28;20343;-21
2021/12/18 03:58:21;;;;;;;4.33;3.20;;;17.90;75.50;;;;;;5099514;28;20570;-23
2021/12/18 04:00:47;;;;;;;3.10;2.67;;;17.80;75.60;;;;;;5098965;28;20186;-25
2021/12/18 04:03:13;;;;;;;4.20;3.40;;;17.80;75.60;;;;;;5116801;28;20211;-21
2021/12/18 04:05:39;;;;;;;3.50;3.20;;;17.80;75.60;;;;;;5116195;28;20581;-22
2021/12/18 04:08:11;;;;;;;3.17;2.80;;;17.80;75.60;;;;;;5099217;28;20193;-22
2021/12/18 04:10:40;;;;;;;4.23;2.90;;;17.80;75.70;;;;;;5117389;28;20286;-24
2021/12/18 04:13:07;;;;;;;4.00;3.40;;;17.80;75.60;;;;;;5117386;28;20491;-24
2021/12/18 04:15:33;;;;;;;4.57;3.33;;;17.80;75.70;;;;;;5117607;28;20659;-24
2021/12/18 04:17:59;;;;;;;4.03;3.43;;;17.80;75.70;;;;;;5098744;28;20180;-22
2021/12/18 04:20:26;;;;;;;3.47;3.13;;;17.80;75.80;;;;;;5116947;28;20204;-22
2021/12/18 04:22:51;;;;;;;3.87;3.10;;;17.80;75.80;;;;;;5099928;28;20233;-23
2021/12/18 04:25:17;;;;;;;4.87;3.23;;;17.80;75.80;;;;;;5116778;28;20201;-21
2021/12/18 04:27:43;;;;;;;3.77;3.03;;;17.70;75.80;;;;;;5099619;28;20190;-22
2021/12/18 04:30:10;;;;;;;3.67;3.30;;;17.70;75.90;;;;;;5117029;28;20208;-24
2021/12/18 04:32:36;;;;;;;4.90;3.60;;;17.70;76.00;;;;;;5099715;28;20196;-23
2021/12/18 04:35:01;;;;;;;4.10;3.33;;;17.70;76.00;;;;;;5116919;28;20187;-20
2021/12/18 04:37:27;;;;;;;6.13;3.47;;;17.70;76.10;;;;;;5117543;28;20272;-19
2021/12/18 04:39:53;;;;;;;5.00;3.53;;;17.70;76.10;;;;;;5099001;28;20295;-22
2021/12/18 04:42:20;;;;;;;3.67;3.13;;;17.70;76.10;;;;;;5098899;28;20563;-21
2021/12/18 04:44:46;;;;;;;3.67;3.27;;;17.70;76.20;;;;;;5116871;28;20320;-23
2021/12/18 04:47:12;;;;;;;3.50;3.20;;;17.70;76.30;;;;;;5116978;28;20262;-23
2021/12/18 04:49:37;;;;;;;3.60;2.83;;;17.70;76.30;;;;;;5099566;28;20303;-22
2021/12/18 04:52:04;;;;;;;4.17;3.40;;;17.70;76.40;;;;;;5116859;28;20479;-21
2021/12/18 04:54:30;;;;;;;3.80;3.40;;;17.70;76.50;;;;;;5116908;28;20221;-21
2021/12/18 04:56:56;;;;;;;4.30;3.10;;;17.70;76.60;;;;;;5116620;28;20546;-21
2021/12/18 04:59:22;;;;;;;3.37;3.07;;;17.60;76.60;;;;;;5098618;28;20197;-23
2021/12/18 05:01:50;;;;;;;3.83;3.30;;;17.60;76.70;;;;;;5116264;28;20196;-22
2021/12/18 05:04:15;;;;;;;3.47;3.10;;;17.60;76.70;;;;;;5115428;28;20223;-22
2021/12/18 05:06:45;;;;;;;4.03;3.27;;;17.60;76.80;;;;;;5116164;28;20203;-25
2021/12/18 05:09:15;;;;;;;3.90;3.17;;;17.60;76.80;;;;;;5099085;28;20261;-22
2021/12/18 05:11:42;;;;;;;3.37;3.00;;;17.60;77.00;;;;;;5098453;28;20197;-21
2021/12/18 05:14:08;;;;;;;3.73;3.13;;;17.50;77.00;;;;;;5117244;28;20193;-21
2021/12/18 05:16:34;;;;;;;3.83;3.10;;;17.50;77.10;;;;;;5116616;28;20208;-24
2021/12/18 05:19:01;;;;;;;3.00;2.70;;;17.50;77.20;;;;;;5097566;28;20288;-23
2021/12/18 05:21:27;;;;;;;3.33;2.90;;;17.50;77.30;;;;;;5115109;28;20540;-23
2021/12/18 05:23:53;;;;;;;4.00;3.10;;;17.50;77.40;;;;;;5115553;28;20223;-22
2021/12/18 05:26:18;;;;;;;3.67;3.23;;;17.50;77.50;;;;;;5116235;28;20196;-22
2021/12/18 05:28:45;;;;;;;3.77;3.30;;;17.50;77.60;;;;;;5098337;28;20296;-23
2021/12/18 05:31:13;;;;;;;3.97;3.03;;;17.50;77.70;;;;;;5098030;28;20223;-22
2021/12/18 05:33:39;;;;;;;3.47;2.87;;;17.50;78.00;;;;;;5098998;28;20465;-22
2021/12/18 05:36:30;;;;;;;3.27;2.37;;;20.40;60.70;;;;;;5116942;28;20556;-22
2021/12/18 05:38:51;;;;;;;2.73;2.43;;;21.90;54.30;;;;;;5115784;28;20230;-21
2021/12/18 05:41:16;;;;;;;3.27;2.67;;;22.30;52.70;;;;;;5115461;28;20214;-24
2021/12/18 05:43:42;;;;;;;3.20;2.70;;;22.50;52.00;;;;;;5097988;28;20207;-25
2021/12/18 05:46:08;;;;;;;3.10;2.77;;;22.70;51.60;;;;;;5114938;28;20198;-21
2021/12/18 05:48:33;;;;;;;3.20;2.57;;;22.90;51.10;;;;;;5098316;28;20282;-23
2021/12/18 05:50:59;;;;;;;3.80;2.73;;;23.30;50.40;;;;;;5115379;28;20209;-23
2021/12/18 05:53:25;;;;;;;3.37;2.70;;;23.80;49.70;;;;;;5097321;28;20202;-22
2021/12/18 05:55:50;;;;;;;3.83;2.90;;;23.90;49.10;;;;;;5097756;28;20292;-22
2021/12/18 05:58:16;;;;;;;3.17;2.87;;;24.00;48.90;;;;;;5097275;28;20212;-21
2021/12/18 06:00:42;;;;;;;3.73;2.97;;;24.10;48.60;;;;;;5097082;28;20670;-22
2021/12/18 06:03:08;;;;;;;2.83;2.43;;;24.40;48.40;;;;;;5097305;28;20214;-21
2021/12/18 06:05:33;;;;;;;2.83;2.53;;;24.50;48.00;;;;;;5096257;28;20201;-24
2021/12/18 06:08:01;;;;;;;3.20;2.73;;;24.50;47.90;;;;;;5097051;28;20198;-23
2021/12/18 06:10:28;;;;;;;3.63;2.80;;;24.60;47.80;;;;;;5114668;28;20215;-20
2021/12/18 06:12:57;;;;;;;5.17;3.20;;;24.60;47.80;;;;;;5115334;28;20636;-21
2021/12/18 06:15:23;;;;;;;2.93;2.60;;;24.70;47.80;;;;;;5097287;28;20194;-22
2021/12/18 06:17:49;;;;;;;4.17;2.90;;;25.00;47.40;;;;;;5095939;28;20438;-22
2021/12/18 06:20:15;;;;;;;3.57;3.03;;;25.30;47.10;;;;;;5115985;28;20190;-23
2021/12/18 06:22:40;;;;;;;3.20;2.73;;;25.20;46.90;;;;;;5114637;28;20216;-21
2021/12/18 06:25:07;;;;;;;3.43;2.97;;;25.20;47.00;;;;;;5114910;28;20194;-22
2021/12/18 06:27:34;;;;;;;3.63;3.00;;;25.00;47.10;;;;;;5097008;28;20228;-24
2021/12/18 06:30:01;;;;;;;3.73;3.00;;;24.80;47.20;;;;;;5114732;28;20196;-21
2021/12/18 06:32:27;;;;;;;4.20;3.00;;;24.60;47.40;;;;;;5114594;28;20181;-22
2021/12/18 06:34:53;;;;;;;3.13;2.83;;;24.40;47.70;;;;;;5115210;28;20193;-21
2021/12/18 06:37:18;;;;;;;3.23;2.90;;;24.20;48.00;;;;;;5114541;28;20247;-22
2021/12/18 06:39:44;;;;;;;3.50;2.80;;;24.00;48.30;;;;;;5096702;28;20174;-22
2021/12/18 06:42:10;;;;;;;3.47;2.90;;;23.80;48.70;;;;;;5114700;28;20213;-23
2021/12/18 06:44:35;;;;;;;3.63;3.10;;;23.60;49.00;;;;;;5095424;28;20484;-20
2021/12/18 06:47:01;;;;;;;3.17;2.87;;;23.30;49.40;;;;;;5096028;28;20265;-25
2021/12/18 06:49:27;;;;;;;3.53;3.00;;;23.10;49.80;;;;;;5095731;28;20463;-22
2021/12/18 06:51:53;;;;;;;3.30;2.90;;;22.90;50.10;;;;;;5113585;28;20287;-21
2021/12/18 06:54:18;;;;;;;3.50;3.20;;;22.70;50.50;;;;;;5095963;28;20190;-22
2021/12/18 06:56:44;;;;;;;3.77;3.17;;;22.50;51.10;;;;;;5096688;28;20564;-24
2021/12/18 06:59:10;;;;;;;3.77;3.10;;;22.30;51.50;;;;;;5096278;28;20266;-22
2021/12/18 07:01:36;;;;;;;3.50;3.07;;;22.10;52.10;;;;;;5095060;28;20202;-21
2021/12/18 07:04:02;;;;;;;3.83;3.20;;;21.90;52.60;;;;;;5095344;28;20212;-23
2021/12/18 07:06:28;;;;;;;3.53;2.90;;;21.70;53.00;;;;;;5095695;28;20194;-22
2021/12/18 07:08:54;;;;;;;3.60;2.97;;;21.50;53.60;;;;;;5113236;28;20292;-23
2021/12/18 07:11:20;;;;;;;3.20;2.80;;;21.30;54.20;;;;;;5113973;28;20272;-22
2021/12/18 07:13:46;;;;;;;3.10;2.80;;;21.20;54.90;;;;;;5095392;28;20221;-21
2021/12/18 07:16:11;;;;;;;3.70;2.90;;;21.10;55.50;;;;;;5095515;28;20521;-24
2021/12/18 07:18:37;;;;;;;3.33;2.80;;;20.90;55.90;;;;;;5113130;28;20198;-24
2021/12/18 07:21:04;;;;;;;3.70;3.00;;;20.80;56.40;;;;;;5095244;28;20219;-23
2021/12/18 07:23:29;;;;;;;3.43;2.90;;;20.50;57.10;;;;;;5094495;28;20232;-22
2021/12/18 07:25:55;;;;;;;3.50;3.00;;;20.30;58.40;;;;;;5111870;28;20257;-22
2021/12/18 07:28:21;;;;;;;4.00;3.10;;;20.30;58.50;;;;;;5113556;28;20474;-22
2021/12/18 07:30:47;;;;;;;4.20;2.97;;;20.60;57.90;;;;;;5094434;28;20628;-23
2021/12/18 07:33:13;;;;;;;4.50;2.83;;;21.20;56.30;;;;;;5094330;28;20223;-21
2021/12/18 07:35:39;;;;;;;3.27;2.63;;;21.80;54.70;;;;;;5113936;28;20186;-20
2021/12/18 07:38:05;;;;;;;3.70;2.80;;;22.50;53.10;;;;;;5094422;28;20232;-22
2021/12/18 07:40:31;;;;;;;3.07;2.77;;;23.20;51.50;;;;;;5093063;28;20198;-22
2021/12/18 07:42:57;;;;;;;4.00;3.00;;;23.70;50.30;;;;;;5093898;28;20536;-22
2021/12/18 07:45:22;;;;;;;3.70;2.73;;;24.10;49.40;;;;;;5112734;28;20311;-23
2021/12/18 07:47:48;;;;;;;4.33;3.20;;;24.30;48.80;;;;;;5112138;28;20208;-23
2021/12/18 07:50:18;;;;;;;2.93;2.53;;;24.40;48.50;;;;;;5094826;28;20194;-23
2021/12/18 07:52:46;;;;;;;4.80;3.03;;;24.40;48.40;;;;;;5111998;28;20210;-26
2021/12/18 07:55:13;;;;;;;5.67;3.00;;;24.30;48.30;;;;;;5094069;28;20306;-23
2021/12/18 07:57:38;;;;;;;3.90;2.93;;;24.30;48.40;;;;;;5095274;28;20278;-24
2021/12/18 08:00:11;;;;;;;3.33;2.77;;;24.30;48.30;;;;;;5111617;28;20217;-22
2021/12/18 08:02:37;;;;;;;3.90;2.80;;;24.30;48.20;;;;;;5077336;28;20205;-26
2021/12/18 08:05:04;;;;;;;2.87;2.53;;;24.30;48.40;;;;;;5093192;28;20545;-24
2021/12/18 08:07:30;;;;;;;3.87;2.90;;;24.10;48.90;;;;;;5110662;28;20465;-25
2021/12/18 08:09:56;;;;;;;3.60;2.80;;;23.90;48.70;;;;;;5110919;28;20201;-25
2021/12/18 08:12:22;;;;;;;4.20;3.00;;;23.70;48.90;;;;;;5110718;28;20194;-24
2021/12/18 08:14:48;;;;;;;3.07;2.47;;;23.50;49.30;;;;;;5093775;28;20430;-21
2021/12/18 08:17:13;;;;;;;3.27;2.87;;;23.20;49.70;;;;;;5093099;28;20433;-23
2021/12/18 08:19:40;;;;;;;3.53;3.03;;;23.00;50.10;;;;;;5111839;28;20198;-24
2021/12/18 08:22:06;;;;;;;4.13;3.07;;;22.80;50.60;;;;;;5111027;28;20285;-21
2021/12/18 08:24:32;;;;;;;3.60;2.43;;;22.50;51.10;;;;;;5109512;28;20214;-24
2021/12/18 08:26:58;;;;;;;3.30;2.60;;;22.30;51.60;;;;;;5110520;28;20198;-23
2021/12/18 08:29:24;;;;;;;3.20;2.80;;;22.00;52.10;;;;;;5092746;28;20197;-19
2021/12/18 08:31:51;;;;;;;3.23;2.77;;;21.80;52.70;;;;;;5109726;28;20243;-23
2021/12/18 08:34:21;;;;;;;3.07;2.77;;;21.60;53.30;;;;;;5092899;28;20196;-22
2021/12/18 08:36:47;;;;;;;3.40;2.67;;;21.50;53.90;;;;;;5110486;28;20589;-23
2021/12/18 08:39:13;;;;;;;3.50;2.77;;;21.30;54.50;;;;;;5112795;28;20189;-24
2021/12/18 08:41:39;;;;;;;3.30;2.80;;;21.10;55.30;;;;;;5115239;28;20186;-21
2021/12/18 08:44:06;;;;;;;3.87;2.80;;;20.90;56.00;;;;;;5096473;28;20224;-22
2021/12/18 08:46:31;;;;;;;4.53;3.47;;;20.90;56.70;;;;;;5115147;28;20249;-23
2021/12/18 08:48:57;;;;;;;4.13;2.87;;;20.80;57.10;;;;;;5095075;28;20237;-21
2021/12/18 08:51:23;;;;;;;4.73;2.90;;;21.00;57.00;;;;;;5115312;28;20190;-22
2021/12/18 08:53:48;;;;;;;5.03;2.80;;;21.20;56.60;;;;;;5096065;28;20211;-22
2021/12/18 08:56:14;;;;;;;4.23;2.93;;;21.50;56.10;;;;;;5114795;28;20228;-22
2021/12/18 08:58:40;;;;;;;3.63;2.87;;;21.80;55.20;;;;;;5113642;28;20261;-23
2021/12/18 09:01:05;;;;;;;3.83;2.87;;;22.20;54.30;;;;;;5113982;28;20246;-25
2021/12/18 09:03:31;;;;;;;4.27;2.90;;;22.60;53.40;;;;;;5113932;28;20316;-23
2021/12/18 09:05:57;;;;;;;4.47;3.03;;;23.10;52.10;;;;;;5113562;28;20202;-25
2021/12/18 09:08:23;;;;;;;4.97;3.17;;;23.50;51.20;;;;;;5095582;28;20170;-23
2021/12/18 09:10:49;;;;;;;4.73;3.03;;;23.60;50.90;;;;;;5095596;28;20727;-23
2021/12/18 09:13:15;;;;;;;4.63;3.60;;;23.40;51.10;;;;;;5095005;28;20638;-19
2021/12/18 09:15:41;;;;;;;6.03;3.17;;;23.10;51.50;;;;;;5094920;28;20201;-22
2021/12/18 09:18:07;;;;;;;5.53;3.40;;;22.90;52.10;;;;;;5113391;28;20475;-23
2021/12/18 09:20:33;;;;;;;5.90;3.23;;;22.70;52.70;;;;;;5094827;28;20194;-20
2021/12/18 09:23:00;;;;;;;4.10;3.00;;;22.50;53.20;;;;;;5114219;28;20201;-22
2021/12/18 09:25:27;;;;;;;5.77;3.13;;;22.30;53.70;;;;;;5112835;28;20190;-23
2021/12/18 09:27:56;;;;;;;5.33;3.50;;;22.10;54.30;;;;;;5094098;28;20289;-21
2021/12/18 09:30:22;;;;;;;9.43;3.93;;;21.90;54.80;;;;;;5112473;28;20197;-24
2021/12/18 09:32:48;;;;;;;6.53;3.63;;;21.70;55.60;;;;;;5112783;28;20309;-21
2021/12/18 09:35:14;;;;;;;5.03;3.60;;;21.40;56.50;;;;;;5095952;28;20296;-21
2021/12/18 09:37:40;;;;;;;7.10;3.33;;;21.20;57.50;;;;;;5094980;28;20182;-24
2021/12/18 09:40:07;;;;;;;7.83;3.63;;;21.30;57.40;;;;;;5112775;28;20551;-23
2021/12/18 09:42:32;;;;;;;7.53;4.00;;;21.60;56.90;;;;;;5111499;28;20186;-22
2021/12/18 09:44:58;;;;;;;6.47;3.77;;;22.00;56.00;;;;;;5112181;28;20321;-21
2021/12/18 09:47:24;;;;;;;7.70;3.80;;;22.40;54.70;;;;;;5112824;28;20197;-21
2021/12/18 09:49:50;;;;;;;8.83;4.30;;;22.90;53.50;;;;;;5111571;28;20301;-21
2021/12/18 09:52:16;;;;;;;8.90;4.17;;;23.20;52.50;;;;;;5113538;28;20231;-22
2021/12/18 09:54:42;;;;;;;6.17;3.77;;;23.50;51.90;;;;;;5094424;28;20201;-22
2021/12/18 09:57:08;;;;;;;7.30;3.70;;;23.60;51.50;;;;;;5112286;28;20648;-23
2021/12/18 09:59:36;;;;;;;6.97;3.57;;;23.70;51.10;;;;;;5112298;28;20237;-21
2021/12/18 10:02:02;;;;;;;7.60;3.60;;;23.70;51.10;;;;;;5094727;28;20479;-22
2021/12/18 10:04:34;;;;;;;6.53;3.83;;;23.70;51.00;;;;;;5111440;28;20220;-22
2021/12/18 10:07:13;;;;;;;7.53;4.30;;;23.60;51.10;;;;;;5111809;28;20189;-20
2021/12/18 10:09:38;;;;;;;6.80;3.53;;;23.60;51.10;;;;;;5110474;28;20181;-22
2021/12/18 10:12:18;;;;;;;7.73;3.77;;;23.50;51.30;;;;;;5111230;28;20201;-22
2021/12/18 10:14:51;;;;;;;6.23;3.90;;;23.40;51.40;;;;;;5111953;28;20239;-22
2021/12/18 10:17:22;;;;;;;7.47;3.80;;;23.20;51.70;;;;;;5110277;28;20196;-23
2021/12/18 10:19:49;;;;;;;6.63;3.60;;;23.00;52.10;;;;;;5092943;28;20197;-21
2021/12/18 10:22:15;;;;;;;5.47;3.70;;;22.90;52.40;;;;;;5091415;28;20194;-24
2021/12/18 10:24:43;;;;;;;7.43;4.00;;;22.80;52.70;;;;;;5109894;28;20275;-21
2021/12/18 10:27:24;;;;;;;7.70;3.80;;;22.60;53.10;;;;;;5090185;28;20413;-23
2021/12/18 10:30:07;;;;;;;7.73;3.93;;;22.50;53.40;;;;;;5092697;28;20190;-22
2021/12/18 10:32:32;;;;;;;7.03;4.40;;;22.30;54.00;;;;;;5108877;28;20194;-21
2021/12/18 10:34:59;;;;;;;6.43;3.83;;;22.10;54.60;;;;;;5108751;28;20534;-21
2021/12/18 10:37:24;;;;;;;5.27;3.53;;;22.00;55.00;;;;;;5109371;28;20426;-21
2021/12/18 10:39:50;;;;;;;5.87;3.63;;;21.80;55.50;;;;;;5110029;28;20485;-21
2021/12/18 10:42:22;;;;;;;6.00;3.80;;;21.70;56.10;;;;;;5093487;28;20197;-20
2021/12/18 10:44:59;;;;;;;5.27;4.10;;;21.60;56.40;;;;;;5109092;28;20225;-23
2021/12/18 10:47:26;;;;;;;5.77;3.90;;;21.50;56.90;;;;;;5110282;28;20167;-21
2021/12/18 10:49:52;;;;;;;6.53;3.77;;;21.40;57.30;;;;;;5110622;28;20647;-23
2021/12/18 10:52:34;;;;;;;4.87;3.80;;;21.30;57.70;;;;;;5091749;28;20201;-22
2021/12/18 10:55:04;;;;;;;5.63;4.10;;;21.20;58.20;;;;;;5110412;28;20430;-22
2021/12/18 10:57:30;;;;;;;6.83;4.10;;;21.20;58.50;;;;;;5091376;28;20561;-23
2021/12/18 10:59:57;;;;;;;5.50;3.67;;;21.20;58.60;;;;;;5091557;28;20615;-22
2021/12/18 11:02:26;;;;;;;5.83;3.87;;;21.20;58.50;;;;;;5109184;28;20365;-23
2021/12/18 11:04:51;;;;;;;4.60;3.27;;;21.40;58.10;;;;;;5109007;28;20232;-21
2021/12/18 11:07:26;;;;;;;6.03;4.10;;;21.60;57.50;;;;;;5109816;28;20446;-22
2021/12/18 11:15:20;;;;;;;6.73;3.63;;;22.30;55.20;;;;;;5109866;28;20208;-23
2021/12/18 11:17:47;;;;;;;5.67;3.77;;;22.60;54.30;;;;;;5092468;28;20189;-21
2021/12/18 11:20:13;;;;;;;5.27;3.70;;;22.90;53.50;;;;;;5110509;28;20208;-23
2021/12/18 11:22:39;;;;;;;4.00;3.47;;;22.90;53.20;;;;;;5090791;28;20200;-22
2021/12/18 11:25:11;;;;;;;4.40;3.50;;;23.10;52.80;;;;;;5091822;28;20458;-21
2021/12/18 11:27:38;;;;;;;4.40;3.67;;;23.20;52.40;;;;;;5109714;28;20217;-21
2021/12/18 11:30:13;;;;;;;4.03;3.33;;;23.40;52.10;;;;;;5110325;28;20273;-20
2021/12/18 11:32:42;;;;;;;3.97;3.30;;;23.50;51.90;;;;;;5113158;28;20193;-21
2021/12/18 11:35:16;;;;;;;5.93;3.50;;;23.50;51.80;;;;;;5114903;28;20194;-21
2021/12/18 11:38:11;;;;;;;5.10;3.90;;;23.40;51.80;;;;;;5115508;28;20181;-21
2021/12/18 11:40:38;;;;;;;4.70;3.70;;;23.20;52.00;;;;;;5110568;28;20606;-22
2021/12/18 11:43:27;;;;;;;4.60;3.30;;;23.30;52.00;;;;;;5091221;28;20274;-22
2021/12/18 11:45:52;;;;;;;4.77;3.80;;;23.30;52.10;;;;;;5108803;28;20185;-22
2021/12/18 11:48:18;;;;;;;4.30;3.20;;;23.20;52.10;;;;;;5108752;28;20190;-23
2021/12/18 11:50:45;;;;;;;3.83;3.40;;;23.10;52.10;;;;;;5090467;28;20650;-19
2021/12/18 11:53:32;;;;;;;4.13;3.20;;;23.00;52.40;;;;;;5091911;28;20205;-21
2021/12/18 11:56:01;;;;;;;4.43;3.60;;;22.90;52.80;;;;;;5089966;28;20233;-21
2021/12/18 11:58:40;;;;;;;3.73;3.30;;;22.70;53.00;;;;;;5091365;28;20190;-20
2021/12/18 12:01:13;;;;;;;4.87;3.40;;;22.60;53.50;;;;;;5106539;28;20229;-20
2021/12/18 12:03:43;;;;;;;4.13;3.30;;;22.40;53.90;;;;;;5089144;28;20218;-22
2021/12/18 12:06:30;;;;;;;4.03;3.20;;;22.10;54.50;;;;;;5088675;28;20181;-19
2021/12/18 12:12:06;;;;;;;4.00;3.23;;;21.90;55.60;;;;;;5090626;28;20269;-19
2021/12/18 12:14:36;;;;;;;4.37;3.27;;;21.70;56.10;;;;;;5094705;28;20363;-22
2021/12/18 12:17:02;;;;;;;4.23;3.40;;;21.60;56.70;;;;;;5111139;28;20263;-22
2021/12/18 12:19:34;;;;;;;4.40;3.40;;;21.50;57.20;;;;;;5094213;28;20192;-22
2021/12/18 12:22:00;;;;;;;4.50;3.30;;;21.40;57.80;;;;;;5093794;28;20177;-23
2021/12/18 12:24:28;;;;;;;4.23;3.47;;;21.20;58.40;;;;;;5093325;28;20237;-22
2021/12/18 12:27:15;;;;;;;3.47;3.17;;;21.10;59.00;;;;;;5093909;28;20192;-23
2021/12/18 12:29:46;;;;;;;3.67;2.83;;;21.00;59.50;;;;;;5111653;28;20407;-21
2021/12/18 12:32:12;;;;;;;4.40;3.60;;;20.90;59.90;;;;;;5110486;28;20249;-23
2021/12/18 12:34:38;;;;;;;4.77;3.50;;;20.80;60.50;;;;;;5111704;28;20210;-22
2021/12/18 12:37:23;;;;;;;3.80;3.37;;;20.80;61.00;;;;;;5112440;28;20196;-24
2021/12/18 12:39:55;;;;;;;3.83;3.20;;;20.80;61.60;;;;;;5110697;28;20606;-23
2021/12/18 12:42:21;;;;;;;4.17;3.50;;;20.90;60.80;;;;;;5111506;28;20301;-20
2021/12/18 12:45:02;;;;;;;4.50;3.30;;;21.00;59.80;;;;;;5113395;28;20212;-22
2021/12/18 12:47:30;;;;;;;3.73;3.17;;;21.30;58.70;;;;;;5093283;28;20197;-22
2021/12/18 12:50:20;;;;;;;4.20;3.53;;;21.90;57.10;;;;;;5113002;28;20196;-21
2021/12/18 12:52:54;;;;;;;4.43;3.33;;;22.20;56.00;;;;;;5092966;28;20298;-23
2021/12/18 12:55:21;;;;;;;4.77;3.83;;;22.50;54.80;;;;;;5112050;28;20193;-21
2021/12/18 12:57:56;;;;;;;4.13;3.47;;;22.90;53.80;;;;;;5094142;28;20202;-22
2021/12/18 13:00:22;;;;;;;4.57;3.47;;;23.10;53.10;;;;;;5112375;28;20470;-21
2021/12/18 13:02:59;;;;;;;4.67;3.70;;;23.30;52.50;;;;;;5111224;28;20559;-20
2021/12/18 13:05:27;;;;;;;4.57;3.53;;;23.50;52.10;;;;;;5093058;28;20204;-21
2021/12/18 13:08:00;;;;;;;4.53;3.40;;;23.60;51.70;;;;;;5093893;28;20575;-23
2021/12/18 13:10:38;;;;;;;4.40;3.37;;;23.50;51.70;;;;;;5112662;28;20590;-22
2021/12/18 13:13:12;;;;;;;4.37;3.60;;;23.40;51.80;;;;;;5111707;28;20200;-22
2021/12/18 13:16:00;;;;;;;5.47;3.70;;;23.20;52.00;;;;;;5111729;28;20189;-24
2021/12/18 13:18:46;;;;;;;4.33;3.70;;;23.00;52.40;;;;;;5092880;28;20512;-20
2021/12/18 13:21:26;;;;;;;5.27;4.03;;;22.80;53.00;;;;;;5111444;28;20243;-22
2021/12/18 13:24:03;;;;;;;4.70;3.50;;;22.60;53.50;;;;;;5109531;28;20273;-22
2021/12/18 13:26:42;;;;;;;5.67;3.60;;;22.40;54.00;;;;;;5110567;28;20437;-21
2021/12/18 13:29:16;;;;;;;4.83;3.93;;;22.20;54.60;;;;;;5108809;28;20285;-21
2021/12/18 13:31:56;;;;;;;7.00;4.07;;;22.00;55.20;;;;;;5103017;28;20177;-22
2021/12/18 13:34:26;;;;;;;5.70;3.90;;;21.70;56.10;;;;;;5092497;28;20184;-21
2021/12/18 13:36:51;;;;;;;5.00;4.07;;;21.50;56.80;;;;;;5108591;28;20208;-21
2021/12/18 13:39:20;;;;;;;6.57;3.80;;;21.30;57.60;;;;;;5110204;28;20182;-21
2021/12/18 13:41:58;;;;;;;5.57;3.90;;;21.10;58.40;;;;;;5092378;28;20187;-22
2021/12/18 13:44:24;;;;;;;6.10;3.73;;;20.80;59.40;;;;;;5110461;28;20224;-21